Time;durP1;ratioP1;P1;durP2;ratioP2;P2;SDS_P1;SDS_P2;PMS_P1;PMS_P2;Temp;Humidity;BMP_temperature;BMP_pressure;BME280_temperature;BME280_humidity;BME280_pressure;Samples;Min_cycle;Max_cycle;Signal;HPM_P1;HPM_P2
2021/03/18 00:02:01;;;;;;;9.33;5.17;;;2.40;74.30;;;;;;4960002;28;20263;-75
2021/03/18 00:04:27;;;;;;;9.23;4.93;;;2.40;74.70;;;;;;4940268;29;20521;-75
2021/03/18 00:06:53;;;;;;;18.50;5.03;;;2.30;75.00;;;;;;4963918;29;20411;-75
2021/03/18 00:09:20;;;;;;;10.83;5.13;;;2.30;75.30;;;;;;4955767;28;20173;-75
2021/03/18 00:11:50;;;;;;;12.53;5.40;;;2.30;75.50;;;;;;4960029;28;20200;-77
2021/03/18 00:14:22;;;;;;;14.10;6.07;;;2.30;75.70;;;;;;4958317;29;20495;-75
2021/03/18 00:16:48;;;;;;;7.33;5.23;;;2.20;75.70;;;;;;4940036;29;20985;-76
2021/03/18 00:19:15;;;;;;;54.00;7.70;;;2.20;76.40;;;;;;4940278;29;20428;-75
2021/03/18 00:21:41;;;;;;;9.43;5.17;;;2.20;76.80;;;;;;4957422;29;20425;-76
2021/03/18 00:24:08;;;;;;;11.13;5.80;;;2.20;77.10;;;;;;4956430;29;20436;-74
2021/03/18 00:26:35;;;;;;;13.27;6.17;;;2.20;77.50;;;;;;4956146;29;20409;-75
2021/03/18 00:29:03;;;;;;;11.43;5.80;;;2.10;77.50;;;;;;4957936;29;20432;-75
2021/03/18 00:31:31;;;;;;;10.27;4.60;;;2.10;77.70;;;;;;4957808;29;20476;-75
2021/03/18 00:33:58;;;;;;;10.60;5.10;;;2.10;78.00;;;;;;4957250;29;20460;-76
2021/03/18 00:36:25;;;;;;;11.37;4.87;;;2.10;78.30;;;;;;4957434;29;20841;-76
2021/03/18 00:38:51;;;;;;;12.23;5.93;;;2.10;78.50;;;;;;4959665;29;20420;-75
2021/03/18 00:41:17;;;;;;;14.13;7.20;;;2.00;78.60;;;;;;4958263;28;20954;-75
2021/03/18 00:43:44;;;;;;;19.77;7.07;;;2.00;79.00;;;;;;4957263;28;20449;-74
2021/03/18 00:46:10;;;;;;;15.87;7.10;;;2.00;79.10;;;;;;4957859;29;20408;-78
2021/03/18 00:48:40;;;;;;;13.40;6.60;;;2.00;79.30;;;;;;4940116;29;20910;-75
2021/03/18 00:51:10;;;;;;;11.80;6.30;;;2.00;79.50;;;;;;4960770;29;20420;-73
2021/03/18 00:53:41;;;;;;;15.20;5.73;;;2.00;80.60;;;;;;4956641;28;20468;-75
2021/03/18 00:56:12;;;;;;;10.77;6.60;;;2.00;80.20;;;;;;4957876;29;20927;-76
2021/03/18 00:58:43;;;;;;;10.17;5.73;;;2.00;80.40;;;;;;4940730;29;20468;-75
2021/03/18 01:01:13;;;;;;;9.53;5.60;;;2.00;80.60;;;;;;4955680;29;20423;-75
2021/03/18 01:03:41;;;;;;;14.10;5.80;;;1.90;80.70;;;;;;4956798;29;20436;-75
2021/03/18 01:06:14;;;;;;;18.63;6.30;;;1.90;81.20;;;;;;4962083;29;20428;-75
2021/03/18 01:08:40;;;;;;;12.40;5.93;;;1.90;81.30;;;;;;4957169;29;20910;-75
2021/03/18 01:11:08;;;;;;;14.40;6.63;;;1.80;81.50;;;;;;4939772;29;20475;-75
2021/03/18 01:13:36;;;;;;;17.37;6.17;;;1.80;81.80;;;;;;4955896;28;20983;-73
2021/03/18 01:16:09;;;;;;;8.47;5.50;;;1.80;82.10;;;;;;4939409;29;20830;-75
2021/03/18 01:18:44;;;;;;;11.83;5.57;;;1.80;82.10;;;;;;4956673;29;20543;-73
2021/03/18 01:21:11;;;;;;;13.30;5.57;;;1.90;82.50;;;;;;4956798;29;20439;-75
2021/03/18 01:23:37;;;;;;;10.47;6.20;;;1.90;82.80;;;;;;4939318;29;20435;-74
2021/03/18 01:26:08;;;;;;;12.87;6.40;;;1.90;83.00;;;;;;4956242;29;20417;-74
2021/03/18 01:28:35;;;;;;;10.43;4.80;;;1.90;83.20;;;;;;4956833;29;20495;-74
2021/03/18 01:31:02;;;;;;;14.60;5.50;;;1.90;83.30;;;;;;4939424;29;20475;-72
2021/03/18 01:33:28;;;;;;;12.27;6.73;;;1.90;83.70;;;;;;4956341;29;20452;-75
2021/03/18 01:35:54;;;;;;;10.60;5.80;;;1.90;83.90;;;;;;4955268;29;20429;-75
2021/03/18 01:38:20;;;;;;;10.17;6.80;;;1.80;84.00;;;;;;4956396;29;20441;-75
2021/03/18 01:40:46;;;;;;;11.63;5.50;;;1.90;84.30;;;;;;4953922;28;20422;-76
2021/03/18 01:43:11;;;;;;;10.60;6.30;;;1.90;84.40;;;;;;4956042;29;20667;-76
2021/03/18 01:45:38;;;;;;;10.53;5.87;;;1.90;84.50;;;;;;4957155;29;20492;-73
2021/03/18 01:48:05;;;;;;;8.70;5.50;;;1.90;84.40;;;;;;4957944;28;20609;-73
2021/03/18 01:50:34;;;;;;;8.30;5.60;;;1.90;84.30;;;;;;4956412;29;20451;-73
2021/03/18 01:53:00;;;;;;;9.97;6.17;;;1.90;84.40;;;;;;4955110;28;20491;-76
2021/03/18 01:55:31;;;;;;;12.50;6.27;;;1.80;84.60;;;;;;4956334;29;20488;-76
2021/03/18 01:57:58;;;;;;;9.13;7.87;;;1.80;84.90;;;;;;4956115;29;20455;-73
2021/03/18 02:00:26;;;;;;;8.87;6.07;;;1.80;85.90;;;;;;4956227;29;20420;-74
2021/03/18 02:02:53;;;;;;;8.30;5.30;;;1.80;85.50;;;;;;4954761;28;20420;-74
2021/03/18 02:05:19;;;;;;;11.10;5.93;;;1.80;85.60;;;;;;4955805;29;20427;-75
2021/03/18 02:07:46;;;;;;;9.53;6.37;;;1.80;85.80;;;;;;4955479;29;20473;-75
2021/03/18 02:10:12;;;;;;;9.10;6.00;;;1.80;86.00;;;;;;4956009;29;20863;-74
2021/03/18 02:12:38;;;;;;;10.30;7.30;;;1.80;86.10;;;;;;4956434;28;20819;-73
2021/03/18 02:15:08;;;;;;;11.43;6.70;;;1.70;86.10;;;;;;4955450;29;20476;-73
2021/03/18 02:17:58;;;;;;;10.40;6.77;;;1.70;86.20;;;;;;4957915;29;20566;-72
2021/03/18 02:20:39;;;;;;;7.93;5.80;;;1.70;86.40;;;;;;4956076;29;20421;-74
2021/03/18 02:23:42;;;;;;;11.73;5.87;;;1.70;86.60;;;;;;4942385;29;20920;-73
2021/03/18 02:26:26;;;;;;;12.77;6.17;;;1.70;86.60;;;;;;4958179;29;20769;-74
2021/03/18 02:29:00;;;;;;;12.10;6.73;;;1.70;86.70;;;;;;4955538;29;20488;-74
2021/03/18 02:31:39;;;;;;;10.77;6.90;;;1.80;86.90;;;;;;4955507;29;20462;-75
2021/03/18 02:34:31;;;;;;;12.33;6.97;;;1.80;86.80;;;;;;4942186;29;20809;-74
2021/03/18 02:37:06;;;;;;;12.77;6.50;;;1.80;86.90;;;;;;4959550;29;20531;-74
2021/03/18 02:39:37;;;;;;;11.90;6.50;;;1.80;87.10;;;;;;4958038;29;20786;-74
2021/03/18 02:42:06;;;;;;;19.87;6.80;;;1.80;87.00;;;;;;4958806;28;20435;-73
2021/03/18 02:44:33;;;;;;;9.20;5.60;;;1.80;87.00;;;;;;4960446;29;20412;-74
2021/03/18 02:47:06;;;;;;;8.93;6.00;;;1.90;87.30;;;;;;4949562;29;20488;-74
2021/03/18 02:49:37;;;;;;;8.23;6.37;;;1.90;87.10;;;;;;4954406;29;20443;-74
2021/03/18 02:52:04;;;;;;;9.03;5.30;;;1.90;86.80;;;;;;4972138;28;20453;-73
2021/03/18 02:54:31;;;;;;;9.47;6.93;;;1.90;87.00;;;;;;4972339;29;20433;-75
2021/03/18 02:57:03;;;;;;;11.40;6.40;;;1.90;86.80;;;;;;4971994;29;20456;-74
2021/03/18 02:59:36;;;;;;;9.43;7.00;;;1.90;86.90;;;;;;4957295;29;20443;-75
2021/03/18 03:02:05;;;;;;;14.67;6.17;;;2.00;87.00;;;;;;4957559;29;20437;-74
2021/03/18 03:04:37;;;;;;;10.80;6.30;;;2.00;86.80;;;;;;4981262;28;20443;-74
2021/03/18 03:07:03;;;;;;;13.40;6.40;;;2.10;86.90;;;;;;4981539;28;20409;-74
2021/03/18 03:09:31;;;;;;;8.87;5.60;;;2.10;86.50;;;;;;4980553;29;20393;-74
2021/03/18 03:11:58;;;;;;;12.23;6.50;;;2.10;86.60;;;;;;4981370;28;20432;-74
2021/03/18 03:14:24;;;;;;;8.83;5.40;;;2.10;86.40;;;;;;4948247;28;20456;-73
2021/03/18 03:16:50;;;;;;;8.57;5.80;;;2.20;86.30;;;;;;4963138;29;20464;-74
2021/03/18 03:19:16;;;;;;;10.93;6.50;;;2.20;86.30;;;;;;4979286;29;20413;-74
2021/03/18 03:21:43;;;;;;;9.80;5.93;;;2.20;86.10;;;;;;4980836;29;20153;-74
2021/03/18 03:24:10;;;;;;;11.00;6.70;;;2.20;86.00;;;;;;4971069;29;20530;-73
2021/03/18 03:26:38;;;;;;;10.83;6.20;;;2.20;85.80;;;;;;4960028;29;20435;-73
2021/03/18 03:29:04;;;;;;;9.97;6.50;;;2.20;86.00;;;;;;4959056;29;20448;-73
2021/03/18 03:31:30;;;;;;;7.60;5.40;;;2.20;86.20;;;;;;4961547;29;20452;-74
2021/03/18 03:33:56;;;;;;;9.53;7.27;;;2.20;86.30;;;;;;4959724;29;20464;-75
2021/03/18 03:36:22;;;;;;;12.70;6.37;;;2.20;86.10;;;;;;4955716;29;21142;-73
2021/03/18 03:38:49;;;;;;;9.03;6.87;;;2.10;86.00;;;;;;4956889;29;20452;-72
2021/03/18 03:41:14;;;;;;;12.47;6.50;;;2.10;86.20;;;;;;4957503;29;20895;-76
2021/03/18 03:43:40;;;;;;;12.17;7.30;;;2.00;86.20;;;;;;4958654;29;20443;-74
2021/03/18 03:46:06;;;;;;;13.20;7.43;;;2.00;86.50;;;;;;4939534;29;20224;-73
2021/03/18 03:48:33;;;;;;;10.27;6.57;;;2.00;86.60;;;;;;4957667;29;20180;-73
2021/03/18 03:51:00;;;;;;;16.10;7.07;;;2.00;86.80;;;;;;4940295;29;20184;-74
2021/03/18 03:53:47;;;;;;;15.40;7.50;;;1.90;86.90;;;;;;4956482;28;20456;-73
2021/03/18 03:56:51;;;;;;;18.37;7.50;;;1.80;87.20;;;;;;4938838;29;21167;-75
2021/03/18 03:59:20;;;;;;;14.50;7.40;;;1.80;87.50;;;;;;4935678;29;20437;-73
2021/03/18 04:01:56;;;;;;;14.33;7.03;;;1.70;87.70;;;;;;4936918;29;20477;-74
2021/03/18 04:04:25;;;;;;;8.23;6.00;;;1.70;87.90;;;;;;4937636;29;20485;-74
2021/03/18 04:06:55;;;;;;;17.67;10.50;;;1.60;88.10;;;;;;4942259;29;20535;-73
2021/03/18 04:09:23;;;;;;;11.23;7.87;;;1.60;88.40;;;;;;4928420;29;20503;-75
2021/03/18 04:11:50;;;;;;;13.43;8.73;;;1.60;88.60;;;;;;4956444;28;20448;-75
2021/03/18 04:14:20;;;;;;;12.70;8.27;;;1.60;88.80;;;;;;4955737;28;20420;-75
2021/03/18 04:16:47;;;;;;;17.30;8.30;;;1.60;88.80;;;;;;4955900;29;20499;-72
2021/03/18 04:19:19;;;;;;;17.00;7.87;;;1.50;88.70;;;;;;4956300;29;20709;-74
2021/03/18 04:21:48;;;;;;;11.80;7.80;;;1.50;88.80;;;;;;4958825;29;20938;-74
2021/03/18 04:24:15;;;;;;;10.70;6.70;;;1.40;88.90;;;;;;4956086;29;20708;-73
2021/03/18 04:26:42;;;;;;;9.93;6.90;;;1.40;89.10;;;;;;4936664;29;20413;-73
2021/03/18 04:29:09;;;;;;;19.03;8.80;;;1.40;89.20;;;;;;4952915;28;20432;-72
2021/03/18 04:31:39;;;;;;;16.40;8.57;;;1.40;89.50;;;;;;4938166;29;20512;-73
2021/03/18 04:34:07;;;;;;;12.97;8.63;;;1.30;89.60;;;;;;4937818;29;20782;-74
2021/03/18 04:36:35;;;;;;;13.83;8.67;;;1.40;89.80;;;;;;4955829;29;20405;-72
2021/03/18 04:39:02;;;;;;;13.03;8.10;;;1.40;90.00;;;;;;4954664;29;20417;-75
2021/03/18 04:41:28;;;;;;;10.57;8.80;;;1.40;89.90;;;;;;4937818;29;20428;-74
2021/03/18 04:43:56;;;;;;;12.03;7.00;;;1.50;89.60;;;;;;4954873;29;20791;-75
2021/03/18 04:46:24;;;;;;;11.80;7.97;;;1.50;89.60;;;;;;4953571;29;20456;-74
2021/03/18 04:48:52;;;;;;;12.27;7.20;;;1.50;89.30;;;;;;4954805;29;20832;-74
2021/03/18 04:51:19;;;;;;;10.90;8.40;;;1.50;89.30;;;;;;4937973;29;20472;-73
2021/03/18 04:53:45;;;;;;;12.67;7.83;;;1.60;89.50;;;;;;4954092;29;20474;-73
2021/03/18 04:56:11;;;;;;;12.27;7.77;;;1.60;89.40;;;;;;4939027;29;20416;-75
2021/03/18 04:58:38;;;;;;;12.00;8.23;;;1.70;89.40;;;;;;4954297;29;20205;-74
2021/03/18 05:01:05;;;;;;;13.77;7.93;;;1.70;88.90;;;;;;4960126;29;20413;-73
2021/03/18 05:03:33;;;;;;;13.13;7.83;;;1.70;88.90;;;;;;4957061;29;20424;-73
2021/03/18 05:06:00;;;;;;;13.40;9.00;;;1.70;88.70;;;;;;4954636;29;20507;-73
2021/03/18 05:08:27;;;;;;;11.43;8.23;;;1.80;88.80;;;;;;4954440;29;20484;-73
2021/03/18 05:10:54;;;;;;;21.83;9.40;;;1.80;88.80;;;;;;4954543;29;20425;-75
2021/03/18 05:13:20;;;;;;;9.80;7.53;;;1.90;88.50;;;;;;4954575;28;20472;-74
2021/03/18 05:15:47;;;;;;;19.50;7.90;;;1.90;88.50;;;;;;4965788;29;20423;-75
2021/03/18 05:18:15;;;;;;;12.63;7.50;;;1.90;88.10;;;;;;4937618;29;20456;-73
2021/03/18 05:20:43;;;;;;;17.53;7.63;;;1.90;88.10;;;;;;4955101;29;20409;-73
2021/03/18 05:23:12;;;;;;;14.43;7.90;;;1.90;87.90;;;;;;4954354;29;20440;-74
2021/03/18 05:25:38;;;;;;;13.97;9.53;;;1.90;87.60;;;;;;4953706;28;20496;-73
2021/03/18 05:28:05;;;;;;;13.33;8.03;;;1.90;87.60;;;;;;4935664;29;20432;-73
2021/03/18 05:30:32;;;;;;;14.27;8.13;;;1.90;87.90;;;;;;4934379;29;20425;-74
2021/03/18 05:32:59;;;;;;;11.17;7.83;;;1.90;87.90;;;;;;4952416;29;20445;-75
2021/03/18 05:35:25;;;;;;;10.83;7.50;;;1.90;87.60;;;;;;4951872;29;20424;-74
2021/03/18 05:37:51;;;;;;;21.00;10.70;;;1.90;87.30;;;;;;4953277;29;20459;-73
2021/03/18 05:40:18;;;;;;;11.90;7.90;;;1.90;87.60;;;;;;4952752;29;20902;-73
2021/03/18 05:42:44;;;;;;;13.13;9.07;;;1.90;87.30;;;;;;4952853;28;20449;-73
2021/03/18 05:45:12;;;;;;;14.80;7.40;;;1.90;87.20;;;;;;4953631;29;20445;-76
2021/03/18 05:47:38;;;;;;;15.13;9.10;;;1.90;87.60;;;;;;4952954;29;20444;-74
2021/03/18 05:50:10;;;;;;;12.13;7.80;;;1.90;87.50;;;;;;4952868;28;20804;-74
2021/03/18 05:52:37;;;;;;;21.13;9.57;;;2.00;87.40;;;;;;4934797;29;20539;-74
2021/03/18 05:55:04;;;;;;;15.50;8.47;;;2.00;87.40;;;;;;4935780;29;20503;-74
2021/03/18 05:57:30;;;;;;;14.17;8.33;;;2.00;87.10;;;;;;4935428;29;20487;-75
2021/03/18 05:59:56;;;;;;;11.00;7.40;;;2.00;87.00;;;;;;4952342;29;20463;-73
2021/03/18 06:02:22;;;;;;;10.53;8.20;;;2.00;86.70;;;;;;4962355;28;20217;-72
2021/03/18 06:04:48;;;;;;;12.97;9.23;;;2.00;87.00;;;;;;4935895;29;20420;-74
2021/03/18 06:07:13;;;;;;;10.70;8.33;;;2.00;87.00;;;;;;4951379;28;20196;-75
2021/03/18 06:09:39;;;;;;;14.50;8.30;;;2.10;87.10;;;;;;4952326;29;20697;-76
2021/03/18 06:12:05;;;;;;;10.43;8.00;;;2.10;86.90;;;;;;4952625;28;20440;-75
2021/03/18 06:14:32;;;;;;;17.33;9.13;;;2.20;86.80;;;;;;4953296;29;20235;-73
2021/03/18 06:16:58;;;;;;;12.30;8.40;;;2.20;86.70;;;;;;4953612;29;20448;-73
2021/03/18 06:19:23;;;;;;;9.63;7.40;;;2.30;86.60;;;;;;4952898;29;20443;-73
2021/03/18 06:21:57;;;;;;;18.33;8.10;;;2.30;86.20;;;;;;4953160;29;20405;-71
2021/03/18 06:24:27;;;;;;;12.83;7.60;;;2.40;86.00;;;;;;4952828;29;20181;-70
2021/03/18 06:26:54;;;;;;;14.37;8.80;;;2.40;85.80;;;;;;4953337;29;20507;-71
2021/03/18 06:29:32;;;;;;;16.37;8.87;;;2.50;85.80;;;;;;4935372;29;20436;-70
2021/03/18 06:32:13;;;;;;;16.70;9.20;;;2.50;85.50;;;;;;4952980;28;20444;-70
2021/03/18 06:34:56;;;;;;;13.27;9.77;;;2.50;85.90;;;;;;4952710;29;20444;-72
2021/03/18 06:37:39;;;;;;;19.93;8.03;;;2.60;85.00;;;;;;4952601;28;20518;-72
2021/03/18 06:40:11;;;;;;;16.20;8.10;;;2.60;85.00;;;;;;4952405;29;20425;-72
2021/03/18 06:42:37;;;;;;;16.93;9.00;;;2.70;85.00;;;;;;4952784;29;20421;-70
2021/03/18 06:45:07;;;;;;;16.77;9.20;;;2.70;84.80;;;;;;4952227;29;20818;-73
2021/03/18 06:48:06;;;;;;;14.50;9.63;;;2.70;83.90;;;;;;4952827;29;20412;-72
2021/03/18 06:50:34;;;;;;;15.67;9.60;;;2.80;84.60;;;;;;4943507;29;20441;-71
2021/03/18 06:52:59;;;;;;;21.27;10.90;;;2.90;84.60;;;;;;4952456;28;20452;-70
2021/03/18 06:55:32;;;;;;;18.20;9.90;;;2.90;83.70;;;;;;4953020;29;20492;-72
2021/03/18 06:58:23;;;;;;;15.93;9.80;;;3.10;84.00;;;;;;4953429;29;20705;-72
2021/03/18 07:01:06;;;;;;;20.37;11.03;;;3.20;82.90;;;;;;4934405;29;20406;-72
2021/03/18 07:03:34;;;;;;;17.53;8.73;;;3.30;83.10;;;;;;4933774;29;20441;-73
2021/03/18 07:06:05;;;;;;;25.77;13.00;;;3.40;82.80;;;;;;4947787;28;20421;-72
2021/03/18 07:08:36;;;;;;;15.17;10.70;;;3.50;82.50;;;;;;4951535;28;20507;-74
2021/03/18 07:11:16;;;;;;;12.97;10.07;;;3.70;81.20;;;;;;4935595;29;20419;-71
2021/03/18 07:13:42;;;;;;;23.57;13.50;;;3.80;80.80;;;;;;4953180;28;20928;-73
2021/03/18 07:16:09;;;;;;;20.60;10.90;;;4.00;80.10;;;;;;4952807;29;20512;-73
2021/03/18 07:18:36;;;;;;;24.47;13.23;;;4.10;80.10;;;;;;4952382;29;20523;-72
2021/03/18 07:21:13;;;;;;;24.33;11.30;;;4.30;79.40;;;;;;4953055;28;20416;-73
2021/03/18 07:23:46;;;;;;;23.13;12.83;;;4.40;78.40;;;;;;4971733;28;20435;-72
2021/03/18 07:26:15;;;;;;;24.37;12.17;;;4.50;77.50;;;;;;4940816;29;21020;-72
2021/03/18 07:28:43;;;;;;;21.70;12.10;;;4.50;78.00;;;;;;4951806;28;20460;-71
2021/03/18 07:31:09;;;;;;;27.10;14.93;;;4.60;77.30;;;;;;4952845;28;20421;-71
2021/03/18 07:33:35;;;;;;;28.27;14.03;;;4.60;76.90;;;;;;4953125;28;20455;-73
2021/03/18 07:36:02;;;;;;;36.00;17.57;;;4.70;76.20;;;;;;4952064;28;20521;-74
2021/03/18 07:38:29;;;;;;;45.40;25.23;;;4.80;77.20;;;;;;4953038;29;20456;-75
2021/03/18 07:40:56;;;;;;;36.57;15.17;;;4.80;75.50;;;;;;4945120;28;20464;-74
2021/03/18 07:43:23;;;;;;;43.00;25.43;;;4.80;75.10;;;;;;4936174;29;20487;-72
2021/03/18 07:45:50;;;;;;;34.33;18.43;;;4.90;75.60;;;;;;4953273;29;20425;-75
2021/03/18 07:48:20;;;;;;;38.70;18.87;;;5.00;75.20;;;;;;4973363;28;20424;-73
2021/03/18 07:50:48;;;;;;;30.37;19.57;;;5.00;74.20;;;;;;4965022;28;20440;-77
2021/03/18 07:53:20;;;;;;;40.60;20.70;;;5.10;75.60;;;;;;4938940;29;20463;-73
2021/03/18 07:55:48;;;;;;;36.33;19.50;;;5.20;74.30;;;;;;4955416;28;20432;-73
2021/03/18 07:58:13;;;;;;;50.30;22.10;;;5.30;74.60;;;;;;4955215;28;20452;-74
2021/03/18 08:00:43;;;;;;;46.83;23.70;;;5.40;73.60;;;;;;4951686;28;20416;-74
2021/03/18 08:03:30;;;;;;;48.10;22.80;;;5.50;73.20;;;;;;4954890;28;20224;-73
2021/03/18 08:05:58;;;;;;;41.53;24.37;;;5.50;72.40;;;;;;4955392;28;20471;-75
2021/03/18 08:08:33;;;;;;;44.53;22.27;;;5.50;72.60;;;;;;4955790;28;20846;-72
2021/03/18 08:11:22;;;;;;;50.53;22.40;;;5.50;72.70;;;;;;4952920;28;20844;-73
2021/03/18 08:13:47;;;;;;;41.57;23.10;;;5.40;72.80;;;;;;4955446;28;20791;-72
2021/03/18 08:16:25;;;;;;;53.73;28.23;;;5.40;72.20;;;;;;4961274;29;20447;-74
2021/03/18 08:18:52;;;;;;;53.73;26.77;;;5.40;72.00;;;;;;4941020;28;20714;-72
2021/03/18 08:21:18;;;;;;;63.03;35.73;;;5.30;72.10;;;;;;4955891;28;20436;-73
2021/03/18 08:23:46;;;;;;;104.03;43.83;;;5.20;73.90;;;;;;4956182;28;20436;-74
2021/03/18 08:26:20;;;;;;;96.90;40.03;;;5.10;73.20;;;;;;4948170;29;20189;-74
2021/03/18 08:28:49;;;;;;;81.30;40.30;;;5.10;75.10;;;;;;4949837;28;20413;-72
2021/03/18 08:31:18;;;;;;;86.83;42.50;;;5.10;74.20;;;;;;4939123;28;20568;-75
2021/03/18 08:33:53;;;;;;;75.77;34.60;;;5.10;73.70;;;;;;4957619;28;20441;-74
2021/03/18 08:36:32;;;;;;;92.80;37.83;;;5.00;74.30;;;;;;4956594;29;20878;-75
2021/03/18 08:39:08;;;;;;;78.97;36.43;;;5.00;74.90;;;;;;4964058;28;20551;-77
2021/03/18 08:41:40;;;;;;;79.23;35.70;;;5.00;73.90;;;;;;4964060;28;20440;-73
2021/03/18 08:44:15;;;;;;;71.13;32.93;;;5.10;75.90;;;;;;4955112;28;20420;-74
2021/03/18 08:46:59;;;;;;;78.43;38.50;;;5.30;77.40;;;;;;4953944;28;20487;-72
2021/03/18 08:49:34;;;;;;;62.93;31.57;;;5.50;73.30;;;;;;4951724;28;20559;-74
2021/03/18 08:52:02;;;;;;;55.57;31.10;;;5.50;72.80;;;;;;4954446;28;20587;-76
2021/03/18 08:54:40;;;;;;;56.17;29.80;;;5.50;72.00;;;;;;4951729;28;20772;-72
2021/03/18 08:57:21;;;;;;;78.90;34.20;;;5.60;75.20;;;;;;4948447;28;20507;-75
2021/03/18 08:59:56;;;;;;;63.00;33.70;;;5.90;72.40;;;;;;4952347;28;20460;-75
2021/03/18 09:02:34;;;;;;;68.40;31.13;;;6.00;72.30;;;;;;4953187;28;20472;-73
2021/03/18 09:05:02;;;;;;;55.33;28.37;;;6.30;73.00;;;;;;4942358;28;20527;-72
2021/03/18 09:07:30;;;;;;;57.07;28.83;;;6.40;68.50;;;;;;4955481;28;20861;-74
2021/03/18 09:10:03;;;;;;;61.93;30.23;;;6.30;67.60;;;;;;4957294;28;20413;-75
2021/03/18 09:12:44;;;;;;;57.93;31.87;;;6.20;68.30;;;;;;4936920;29;20547;-72
2021/03/18 09:15:30;;;;;;;57.90;30.20;;;6.20;69.90;;;;;;4954088;29;20417;-75
2021/03/18 09:18:02;;;;;;;65.93;29.90;;;6.40;69.80;;;;;;4954110;28;20473;-74
2021/03/18 09:20:35;;;;;;;92.63;41.00;;;6.50;69.90;;;;;;4940196;29;20488;-73
2021/03/18 09:23:07;;;;;;;55.87;30.10;;;6.70;68.20;;;;;;4958332;28;20430;-73
2021/03/18 09:25:34;;;;;;;66.87;34.50;;;6.70;65.90;;;;;;4957999;28;20552;-73
2021/03/18 09:27:59;;;;;;;51.57;29.70;;;6.60;70.00;;;;;;4969700;28;20493;-74
2021/03/18 09:30:29;;;;;;;56.83;34.43;;;6.90;68.30;;;;;;4973153;28;20451;-73
2021/03/18 09:32:56;;;;;;;61.17;31.73;;;7.10;66.00;;;;;;4964800;28;20256;-73
2021/03/18 09:35:22;;;;;;;53.30;30.40;;;7.20;67.00;;;;;;4953653;29;20408;-72
2021/03/18 09:37:49;;;;;;;55.70;28.57;;;7.30;65.40;;;;;;4952434;28;20515;-73
2021/03/18 09:40:16;;;;;;;50.23;28.70;;;7.40;64.30;;;;;;4954044;29;20420;-74
2021/03/18 09:42:43;;;;;;;61.67;29.70;;;7.40;65.40;;;;;;4951778;28;20496;-72
2021/03/18 09:45:09;;;;;;;44.40;25.93;;;7.50;64.30;;;;;;4952696;28;20420;-74
2021/03/18 09:47:37;;;;;;;58.87;31.37;;;7.60;63.40;;;;;;4952640;29;20440;-74
2021/03/18 09:50:05;;;;;;;55.67;29.03;;;7.50;62.10;;;;;;4971164;28;20443;-73
2021/03/18 09:52:31;;;;;;;48.03;26.67;;;7.40;63.50;;;;;;4937511;29;20460;-73
2021/03/18 09:54:59;;;;;;;47.90;28.13;;;7.30;64.10;;;;;;4957117;28;20432;-74
2021/03/18 09:57:30;;;;;;;55.17;30.10;;;7.40;64.10;;;;;;4949845;28;20466;-72
2021/03/18 09:59:56;;;;;;;55.97;30.60;;;7.40;65.40;;;;;;4952896;28;20428;-73
2021/03/18 10:02:29;;;;;;;53.77;30.50;;;7.60;62.80;;;;;;4952881;28;20421;-75
2021/03/18 10:04:55;;;;;;;47.27;27.00;;;7.70;62.90;;;;;;4952669;28;20412;-75
2021/03/18 10:07:27;;;;;;;50.53;28.83;;;7.80;64.10;;;;;;4962306;28;20414;-72
2021/03/18 10:09:53;;;;;;;51.43;26.80;;;8.00;62.20;;;;;;4953028;28;20412;-72
2021/03/18 10:12:21;;;;;;;43.23;24.83;;;8.20;61.10;;;;;;4952499;28;20961;-73
2021/03/18 10:14:57;;;;;;;44.10;25.30;;;8.20;60.10;;;;;;4952739;28;20416;-74
2021/03/18 10:17:33;;;;;;;51.80;26.10;;;8.30;59.70;;;;;;4936091;29;20456;-75
2021/03/18 10:20:06;;;;;;;51.60;26.13;;;8.40;59.80;;;;;;4953039;28;20404;-73
2021/03/18 10:22:38;;;;;;;46.70;24.90;;;8.50;60.60;;;;;;4951076;28;20520;-73
2021/03/18 10:25:09;;;;;;;42.00;24.67;;;8.80;60.00;;;;;;4953045;28;21080;-74
2021/03/18 10:27:40;;;;;;;41.37;24.20;;;9.00;57.40;;;;;;4952178;29;20948;-74
2021/03/18 10:30:14;;;;;;;40.03;22.70;;;9.10;57.80;;;;;;4954008;28;20504;-77
2021/03/18 10:32:58;;;;;;;41.30;22.40;;;9.20;58.30;;;;;;4956440;28;20567;-74
2021/03/18 10:35:24;;;;;;;40.60;22.80;;;9.50;56.50;;;;;;4918004;29;20431;-75
2021/03/18 10:37:50;;;;;;;38.47;24.40;;;9.40;56.10;;;;;;4937837;29;20536;-74
2021/03/18 10:40:23;;;;;;;38.33;23.27;;;9.40;57.00;;;;;;4953347;28;20172;-75
2021/03/18 10:42:51;;;;;;;38.17;21.10;;;9.30;57.00;;;;;;4953696;28;20721;-74
2021/03/18 10:45:25;;;;;;;35.40;19.70;;;9.50;57.10;;;;;;4949050;28;20467;-73
2021/03/18 10:48:02;;;;;;;30.77;19.03;;;9.80;55.70;;;;;;4950917;28;20428;-74
2021/03/18 10:50:34;;;;;;;34.70;19.80;;;10.10;54.70;;;;;;4937893;29;20795;-73
2021/03/18 10:53:03;;;;;;;40.67;21.30;;;10.20;53.30;;;;;;4940238;29;20523;-73
2021/03/18 10:55:36;;;;;;;31.40;19.67;;;10.20;53.40;;;;;;4957378;28;20940;-75
2021/03/18 10:58:04;;;;;;;31.73;17.67;;;10.20;53.20;;;;;;4954295;28;21027;-74
2021/03/18 11:00:34;;;;;;;25.67;15.67;;;9.80;52.80;;;;;;4954035;28;20795;-73
2021/03/18 11:03:02;;;;;;;22.63;15.43;;;9.60;55.10;;;;;;4949881;28;20432;-75
2021/03/18 11:05:29;;;;;;;21.40;13.33;;;9.80;54.90;;;;;;4950582;28;20427;-76
2021/03/18 11:07:59;;;;;;;31.63;15.00;;;9.80;53.30;;;;;;4950449;29;21053;-72
2021/03/18 11:10:34;;;;;;;24.87;14.10;;;9.90;53.80;;;;;;4958380;28;20421;-72
2021/03/18 11:13:05;;;;;;;25.90;14.60;;;10.00;52.70;;;;;;4952486;28;20472;-73
2021/03/18 11:15:51;;;;;;;29.90;15.93;;;10.10;51.70;;;;;;4959644;28;20795;-75
2021/03/18 11:18:24;;;;;;;28.57;17.63;;;10.10;53.30;;;;;;4953512;29;20456;-72
2021/03/18 11:20:50;;;;;;;28.80;17.27;;;10.20;52.90;;;;;;4951782;28;20456;-73
2021/03/18 11:23:24;;;;;;;24.80;15.20;;;10.00;51.10;;;;;;4952322;28;20547;-73
2021/03/18 11:25:58;;;;;;;29.30;16.17;;;10.00;52.70;;;;;;4950788;28;20174;-73
2021/03/18 11:28:25;;;;;;;33.30;15.37;;;9.90;51.70;;;;;;4952267;28;20421;-73
2021/03/18 11:30:51;;;;;;;33.27;15.00;;;9.60;52.90;;;;;;4955867;28;20464;-74
2021/03/18 11:33:21;;;;;;;20.33;11.67;;;9.70;52.80;;;;;;4955425;28;20444;-74
2021/03/18 11:35:51;;;;;;;20.57;10.40;;;9.80;51.50;;;;;;4955599;28;20957;-74
2021/03/18 11:38:18;;;;;;;16.53;7.80;;;9.90;51.40;;;;;;4955790;29;20631;-73
2021/03/18 11:40:46;;;;;;;17.70;9.00;;;9.80;50.90;;;;;;4967993;28;20407;-72
2021/03/18 11:43:13;;;;;;;10.67;7.30;;;9.80;51.50;;;;;;4955545;28;20511;-73
2021/03/18 11:45:39;;;;;;;13.27;8.37;;;9.90;50.40;;;;;;4936143;28;21992;-76
2021/03/18 11:48:06;;;;;;;15.37;9.20;;;10.00;48.90;;;;;;4955032;29;20419;-73
2021/03/18 11:50:33;;;;;;;15.50;8.07;;;9.80;49.50;;;;;;4953379;28;20783;-75
2021/03/18 11:52:58;;;;;;;15.03;9.77;;;9.70;49.70;;;;;;4953869;28;20448;-72
2021/03/18 11:55:25;;;;;;;18.80;7.27;;;9.50;50.10;;;;;;4955071;28;21139;-74
2021/03/18 11:57:57;;;;;;;15.17;9.40;;;9.40;51.40;;;;;;4955471;29;20694;-73
2021/03/18 12:00:25;;;;;;;15.77;9.40;;;9.40;52.10;;;;;;4954835;28;20794;-75
2021/03/18 12:02:52;;;;;;;16.40;8.13;;;9.70;51.80;;;;;;4955261;28;20433;-73
2021/03/18 12:05:18;;;;;;;12.63;6.90;;;10.00;50.10;;;;;;4938274;29;20417;-72
2021/03/18 12:07:43;;;;;;;17.63;7.13;;;10.10;49.00;;;;;;4955150;29;20551;-74
2021/03/18 12:10:10;;;;;;;12.43;6.30;;;10.10;49.60;;;;;;4954644;28;20654;-75
2021/03/18 12:12:36;;;;;;;11.70;7.30;;;10.20;48.60;;;;;;4956069;28;20610;-73
2021/03/18 12:15:03;;;;;;;14.73;7.37;;;10.40;48.40;;;;;;4938312;29;20428;-75
2021/03/18 12:17:29;;;;;;;12.93;6.50;;;10.40;48.10;;;;;;4954511;29;20296;-73
2021/03/18 12:19:55;;;;;;;8.43;5.80;;;10.20;47.30;;;;;;4961039;28;20461;-74
2021/03/18 12:22:20;;;;;;;9.10;5.50;;;9.80;48.50;;;;;;4955417;28;20189;-76
2021/03/18 12:24:46;;;;;;;15.07;4.70;;;9.70;49.00;;;;;;4937875;29;20859;-74
2021/03/18 12:27:12;;;;;;;11.53;5.17;;;9.50;49.00;;;;;;4956475;29;20166;-76
2021/03/18 12:29:37;;;;;;;7.83;5.83;;;9.50;49.00;;;;;;4937728;29;20177;-76
2021/03/18 12:32:04;;;;;;;13.23;5.43;;;9.60;50.50;;;;;;4954902;28;20576;-74
2021/03/18 12:34:30;;;;;;;8.23;3.77;;;9.70;49.00;;;;;;4955154;28;20743;-74
2021/03/18 12:36:56;;;;;;;14.00;4.57;;;9.70;49.20;;;;;;4954539;28;20428;-76
2021/03/18 12:39:22;;;;;;;8.73;4.47;;;9.80;49.70;;;;;;4954134;28;20412;-76
2021/03/18 12:41:48;;;;;;;10.67;4.70;;;10.00;48.10;;;;;;4937787;28;20427;-74
2021/03/18 12:44:14;;;;;;;7.13;3.13;;;10.10;47.20;;;;;;4953149;28;20481;-73
2021/03/18 12:46:41;;;;;;;6.10;3.20;;;10.00;46.50;;;;;;4955360;29;20647;-72
2021/03/18 12:49:08;;;;;;;5.93;3.40;;;9.70;47.00;;;;;;4953963;28;20539;-75
2021/03/18 12:51:36;;;;;;;7.63;3.60;;;9.60;47.40;;;;;;4938001;29;20464;-74
2021/03/18 12:54:01;;;;;;;25.73;13.63;;;9.60;48.50;;;;;;4954527;28;20507;-73
2021/03/18 12:56:27;;;;;;;6.40;4.30;;;9.70;49.10;;;;;;4954435;29;20511;-72